Time;durP1;ratioP1;P1;durP2;ratioP2;P2;SDS_P1;SDS_P2;PMS_P1;PMS_P2;Temp;Humidity;BMP_temperature;BMP_pressure;BME280_temperature;BME280_humidity;BME280_pressure;Samples;Min_cycle;Max_cycle;Signal;HPM_P1;HPM_P2
2022/03/28 00:01:55;;;;;;;;;45.33;36.33;;;;;15.91;37.06;101742.91;6286053;22;45282;-84
2022/03/28 00:04:21;;;;;;;;;38.67;32.33;;;;;15.94;37.04;101748.31;6286114;22;45341;-84
2022/03/28 00:06:47;;;;;;;;;37.67;33.00;;;;;15.94;37.11;101748.31;6257993;22;45348;-84
2022/03/28 00:09:13;;;;;;;;;22.33;20.33;;;;;15.91;37.25;101748.28;6256303;22;46652;-83
2022/03/28 00:11:38;;;;;;;;;36.67;33.00;;;;;15.89;37.59;101751.84;6257508;22;45650;-84
2022/03/28 00:14:13;;;;;;;;;38.00;34.00;;;;;16.03;37.17;101744.78;6257666;22;45233;-83
2022/03/28 00:16:39;;;;;;;;;39.00;30.67;;;;;15.85;37.57;101744.66;6257807;22;45388;-84
2022/03/28 00:19:05;;;;;;;;;42.00;34.67;;;;;15.87;37.93;101746.44;6284786;22;45327;-84
2022/03/28 00:21:30;;;;;;;;;37.00;31.67;;;;;15.79;37.60;101740.13;6257769;22;45919;-83
2022/03/28 00:23:56;;;;;;;;;36.33;32.33;;;;;15.81;37.68;101749.09;6259989;22;45238;-84
2022/03/28 00:26:21;;;;;;;;;31.33;31.33;;;;;15.71;37.88;101729.28;6288884;22;45398;-84
2022/03/28 00:28:48;;;;;;;;;37.00;33.67;;;;;15.86;37.88;101736.63;6259515;22;46957;-84
2022/03/28 00:31:14;;;;;;;;;32.00;31.00;;;;;15.77;37.95;101728.50;6287884;22;45357;-84
2022/03/28 00:33:40;;;;;;;;;34.67;33.33;;;;;15.68;37.96;101723.91;6286306;22;45597;-84
2022/03/28 00:36:06;;;;;;;;;38.67;34.67;;;;;15.75;38.03;101730.25;6259323;22;45380;-83
2022/03/28 00:38:32;;;;;;;;;32.33;32.00;;;;;15.69;38.23;101720.34;6284621;22;45420;-83
2022/03/28 00:40:58;;;;;;;;;34.33;31.33;;;;;15.66;38.35;101722.13;6285114;22;45274;-83
2022/03/28 00:43:26;;;;;;;;;36.33;29.33;;;;;15.77;38.17;101721.38;6257572;22;45753;-83
2022/03/28 00:45:52;;;;;;;;;38.33;32.67;;;;;15.64;38.36;101715.84;6259056;22;45500;-83
2022/03/28 00:48:17;;;;;;;;;38.33;35.67;;;;;15.61;38.41;101716.69;6285083;22;45927;-83
2022/03/28 00:54:07;;;;;;;;;42.00;35.67;;;;;15.70;38.67;101714.09;6288592;22;45434;-83
2022/03/28 00:56:33;;;;;;;;;36.33;30.67;;;;;15.57;38.55;101714.88;6287143;22;45328;-83
2022/03/28 00:59:00;;;;;;;;;41.33;34.67;;;;;15.51;39.03;101713.06;6285545;22;45392;-82
2022/03/28 01:01:26;;;;;;;;;36.33;34.33;;;;;15.53;39.07;101713.03;6286692;22;45393;-83
2022/03/28 01:03:51;;;;;;;;;38.33;32.00;;;;;15.49;39.34;101705.84;6285943;22;45368;-83
2022/03/28 01:06:19;;;;;;;;;37.00;33.33;;;;;15.64;39.07;101706.00;6258887;22;45438;-83
2022/03/28 01:08:44;;;;;;;;;33.00;30.00;;;;;15.48;39.19;101696.94;6259309;22;47193;-83
2022/03/28 01:11:10;;;;;;;;;32.00;31.00;;;;;15.49;39.24;101703.19;6259531;22;45346;-83
2022/03/28 01:13:39;;;;;;;;;34.33;33.33;;;;;15.55;39.29;101701.47;6259098;22;45422;-82
2022/03/28 01:16:05;;;;;;;;;35.67;29.33;;;;;15.47;39.50;101699.59;6287024;22;45333;-83
2022/03/28 01:18:33;;;;;;;;;35.67;32.33;;;;;15.53;39.70;101703.25;6287387;22;45321;-83
2022/03/28 01:21:03;;;;;;;;;36.33;33.00;;;;;15.52;39.65;101700.53;6259603;22;45306;-83
2022/03/28 01:23:29;;;;;;;;;36.33;34.00;;;;;15.43;39.50;101706.72;6259513;22;45576;-83
2022/03/28 01:25:56;;;;;;;;;38.00;35.33;;;;;15.41;39.50;101700.41;6287367;22;45368;-83
2022/03/28 01:28:27;;;;;;;;;21.67;20.33;;;;;15.47;39.53;101697.81;6260188;22;45353;-84
2022/03/28 02:01:09;;;;;;;;;38.33;36.00;;;;;15.10;40.88;101665.28;6287330;22;45246;-84
2022/03/28 02:03:35;;;;;;;;;39.67;34.00;;;;;15.11;41.06;101672.44;6259766;22;45544;-83
2022/03/28 02:06:00;;;;;;;;;30.33;30.33;;;;;15.09;41.26;101662.59;6284179;22;48081;-83
2022/03/28 02:08:26;;;;;;;;;37.00;33.33;;;;;15.12;41.15;101674.22;6257457;22;45323;-84
2022/03/28 02:10:51;;;;;;;;;43.00;36.00;;;;;15.06;41.23;101667.91;6286059;22;45312;-84
2022/03/28 02:13:16;;;;;;;;;39.00;32.00;;;;;15.04;41.36;101661.66;6285566;22;45290;-82
2022/03/28 02:19:04;;;;;;;;;43.67;34.00;;;;;14.93;41.72;101662.44;6287200;22;45376;-84
2022/03/28 02:21:35;;;;;;;;;38.33;35.33;;;;;15.04;41.97;101667.91;6259644;22;45319;-83
2022/03/28 02:24:01;;;;;;;;;38.67;31.33;;;;;14.88;42.10;101658.78;6260856;22;45310;-82
2022/03/28 02:26:26;;;;;;;;;40.33;34.00;;;;;14.92;42.14;101657.06;6261949;22;48153;-85
2022/03/28 02:28:53;;;;;;;;;39.33;32.33;;;;;14.96;42.36;101651.75;6260961;22;45392;-83
2022/03/28 02:31:19;;;;;;;;;34.00;30.67;;;;;14.87;42.52;101662.38;6286011;22;45404;-84
2022/03/28 02:33:44;;;;;;;;;37.33;34.00;;;;;14.87;42.64;101662.38;6288080;22;45297;-83
2022/03/28 02:36:10;;;;;;;;;44.00;35.00;;;;;14.82;43.10;101650.69;6260740;22;47043;-84
2022/03/28 02:38:35;;;;;;;;;40.00;35.25;;;;;14.83;43.34;101646.25;6261565;22;45346;-84
2022/03/28 02:41:04;;;;;;;;;40.25;36.25;;;;;14.92;43.77;101652.59;6262387;22;45357;-83
2022/03/28 02:43:29;;;;;;;;;42.33;34.33;;;;;14.85;43.57;101653.41;6289977;22;45381;-84
2022/03/28 02:45:55;;;;;;;;;42.00;36.33;;;;;14.84;43.75;101648.03;6262489;22;47785;-84
2022/03/28 02:48:22;;;;;;;;;39.50;35.75;;;;;14.82;43.83;101642.66;6262030;22;44820;-85
2022/03/28 02:50:48;;;;;;;;;41.75;34.25;;;;;14.84;44.17;101640.00;6262984;22;45402;-83
2022/03/28 02:53:14;;;;;;;;;45.67;35.00;;;;;14.83;44.23;101636.44;6287838;22;45384;-84
2022/03/28 02:55:39;;;;;;;;;43.33;36.00;;;;;14.80;44.46;101640.00;6260394;22;48153;-83
2022/03/28 02:58:08;;;;;;;;;35.33;34.67;;;;;14.93;44.55;101634.75;6288595;22;44811;-83
2022/03/28 03:00:34;;;;;;;;;39.33;35.33;;;;;14.71;44.68;101618.44;6255964;22;45407;-83
2022/03/28 03:03:00;;;;;;;;;43.75;36.75;;;;;14.71;45.03;101623.81;6256570;22;45553;-83
2022/03/28 03:05:26;;;;;;;;;48.50;36.00;;;;;14.69;45.20;101620.22;6254286;22;48062;-83
2022/03/28 03:07:52;;;;;;;;;43.75;37.25;;;;;14.70;45.15;101622.00;6283394;22;45471;-83
2022/03/28 03:10:17;;;;;;;;;40.00;35.25;;;;;14.62;45.11;101621.00;6257403;22;45393;-82
2022/03/28 03:12:42;;;;;;;;;49.75;40.25;;;;;14.59;45.31;101621.88;6258899;22;45407;-83
2022/03/28 03:15:08;;;;;;;;;43.00;39.50;;;;;14.56;45.54;101607.56;6285771;22;46039;-83
2022/03/28 03:17:35;;;;;;;;;44.50;38.00;;;;;14.55;45.11;101603.06;6257888;22;46370;-83
2022/03/28 03:20:00;;;;;;;;;44.25;39.00;;;;;14.54;45.34;101607.53;6258160;22;45730;-83
2022/03/28 03:22:28;;;;;;;;;44.00;36.00;;;;;14.59;45.62;101608.50;6287082;22;45352;-83
2022/03/28 03:24:53;;;;;;;;;46.00;37.00;;;;;14.51;45.93;101606.59;6257471;22;45580;-83
2022/03/28 03:27:18;;;;;;;;;51.00;39.25;;;;;14.52;46.02;101606.63;6285608;22;45432;-83
2022/03/28 03:29:44;;;;;;;;;41.00;34.75;;;;;14.44;46.27;101602.94;6284797;22;45320;-83
2022/03/28 03:32:10;;;;;;;;;49.50;38.50;;;;;14.49;46.53;101606.56;6283782;22;45486;-83
2022/03/28 03:34:39;;;;;;;;;40.50;36.00;;;;;14.49;46.57;101600.31;6285862;22;46611;-83
2022/03/28 03:37:04;;;;;;;;;43.00;36.25;;;;;14.42;46.34;101599.31;6257820;22;45267;-82
2022/03/28 03:39:29;;;;;;;;;47.00;36.75;;;;;14.40;46.75;101610.03;6283139;22;45330;-83
2022/03/28 03:41:56;;;;;;;;;41.50;37.75;;;;;14.33;47.10;101589.41;6283835;22;45543;-83
2022/03/28 03:44:24;;;;;;;;;42.25;36.25;;;;;14.32;47.00;101603.69;6288720;22;45520;-82
2022/03/28 03:46:50;;;;;;;;;44.00;36.75;;;;;14.25;47.25;101607.16;6261343;22;45681;-83
2022/03/28 03:49:18;;;;;;;;;29.75;22.50;;;;;14.24;47.71;101612.47;6261096;22;45311;-84
2022/03/28 03:51:44;;;;;;;;;51.75;43.25;;;;;14.17;47.76;101599.03;6288758;22;45378;-83
2022/03/28 03:54:10;;;;;;;;;52.75;40.25;;;;;14.14;48.11;101604.34;6260379;22;47292;-83
2022/03/28 03:56:35;;;;;;;;;44.75;37.75;;;;;14.16;48.29;101607.94;6262400;22;45779;-84
2022/03/28 03:59:01;;;;;;;;;47.25;40.50;;;;;14.15;48.27;101600.78;6287860;22;45333;-83
2022/03/28 04:01:26;;;;;;;;;42.00;37.50;;;;;14.14;48.14;101599.00;6289087;22;44791;-84
2022/03/28 04:03:55;;;;;;;;;44.75;38.50;;;;;14.25;48.24;101598.25;6235093;22;46966;-83
2022/03/28 04:06:21;;;;;;;;;52.25;38.25;;;;;14.10;48.67;101593.56;6261024;22;45417;-84
2022/03/28 04:08:49;;;;;;;;;49.25;38.25;;;;;14.19;48.66;101594.59;6261515;22;44824;-84
2022/03/28 04:11:15;;;;;;;;;47.25;38.50;;;;;14.13;48.72;101602.53;6261904;22;45524;-85
2022/03/28 04:17:29;;;;;;;;;49.75;39.75;;;;;14.25;48.12;101591.09;6288712;22;45412;-83
2022/03/28 04:19:55;;;;;;;;;46.25;37.75;;;;;14.08;48.64;101598.00;6289510;22;45232;-84
2022/03/28 04:22:22;;;;;;;;;45.25;36.75;;;;;14.14;48.64;101608.81;6262603;22;45306;-83
2022/03/28 04:24:47;;;;;;;;;50.50;41.25;;;;;14.07;49.11;101612.28;6263495;22;47466;-84
2022/03/28 04:27:13;;;;;;;;;51.75;42.50;;;;;14.09;49.27;101611.41;6260167;22;45384;-82
2022/03/28 04:29:40;;;;;;;;;45.75;39.25;;;;;14.03;49.14;101594.38;6287067;22;45430;-83
2022/03/28 04:32:06;;;;;;;;;52.75;43.25;;;;;14.01;49.18;101594.34;6259646;22;45593;-83
2022/03/28 04:34:31;;;;;;;;;53.50;39.25;;;;;14.01;49.57;101603.28;6258549;22;48073;-83
2022/03/28 04:36:57;;;;;;;;;48.50;42.00;;;;;14.03;49.82;101599.72;6283684;22;45392;-83
2022/03/28 04:39:23;;;;;;;;;42.50;35.00;;;;;14.11;49.80;101598.94;6257989;22;45345;-83
2022/03/28 04:41:49;;;;;;;;;53.25;43.50;;;;;13.96;50.28;101594.31;6256492;22;45539;-83
2022/03/28 04:44:14;;;;;;;;;52.00;42.75;;;;;13.99;50.56;101598.78;6257420;22;47772;-83
2022/03/28 04:46:39;;;;;;;;;51.50;43.50;;;;;14.04;50.51;101602.44;6284778;22;45674;-83
2022/03/28 04:49:05;;;;;;;;;57.75;44.25;;;;;14.02;51.14;101596.16;6257127;22;46188;-82
2022/03/28 04:51:31;;;;;;;;;59.25;46.50;;;;;13.96;51.31;101583.59;6257198;22;45449;-82
2022/03/28 04:53:58;;;;;;;;;53.25;42.00;;;;;14.13;51.00;101589.16;6286961;22;46557;-83
2022/03/28 04:56:23;;;;;;;;;57.25;44.50;;;;;14.00;51.32;101589.91;6258772;22;45475;-82
2022/03/28 04:58:48;;;;;;;;;61.25;46.00;;;;;14.00;51.62;101596.13;6257416;22;45345;-83
2022/03/28 05:01:14;;;;;;;;;54.25;44.75;;;;;14.01;52.06;101591.69;6286929;22;45431;-82
2022/03/28 05:03:39;;;;;;;;;55.00;45.00;;;;;13.99;52.02;101588.09;6257919;22;46928;-83
2022/03/28 05:06:08;;;;;;;;;56.25;43.50;;;;;13.98;52.17;101581.84;6285653;22;45309;-82
2022/03/28 05:08:33;;;;;;;;;56.25;46.00;;;;;13.99;52.42;101582.75;6260219;22;45396;-83
2022/03/28 05:10:59;;;;;;;;;54.75;39.75;;;;;13.96;52.56;101578.25;6284778;22;44817;-83
2022/03/28 05:13:25;;;;;;;;;56.75;41.25;;;;;13.95;52.41;101580.91;6258751;22;48529;-83
2022/03/28 05:15:51;;;;;;;;;55.75;43.50;;;;;13.95;52.34;101581.78;6257252;22;45523;-83
2022/03/28 05:18:16;;;;;;;;;57.00;48.00;;;;;13.94;52.93;101588.03;6255580;22;45803;-84
2022/03/28 05:20:42;;;;;;;;;61.75;48.25;;;;;13.93;52.63;101582.66;6258001;22;45714;-83
2022/03/28 05:23:07;;;;;;;;;54.75;44.25;;;;;13.93;52.98;101577.31;6285233;22;45350;-83
2022/03/28 05:25:32;;;;;;;;;56.00;44.75;;;;;13.88;52.92;101584.38;6257833;22;45764;-83
2022/03/28 05:27:58;;;;;;;;;54.25;43.50;;;;;13.93;52.96;101593.34;6257866;22;45957;-83
2022/03/28 05:30:24;;;;;;;;;55.00;44.25;;;;;14.03;53.00;101589.94;6287893;22;45320;-83
2022/03/28 05:32:53;;;;;;;;;55.75;43.75;;;;;13.91;52.95;101589.75;6258282;22;48447;-83
2022/03/28 05:35:18;;;;;;;;;56.50;43.50;;;;;13.92;53.23;101586.22;6257703;22;45849;-83
2022/03/28 05:37:44;;;;;;;;;61.00;47.75;;;;;13.88;53.59;101584.38;6284934;22;45341;-84
2022/03/28 05:40:11;;;;;;;;;53.25;44.75;;;;;13.98;54.28;101588.97;6256312;22;45398;-84
2022/03/28 05:42:37;;;;;;;;;59.50;47.50;;;;;13.98;53.82;101580.97;6282812;22;45473;-84
2022/03/28 05:45:06;;;;;;;;;59.00;46.75;;;;;14.03;53.76;101581.00;6228941;22;45861;-84
2022/03/28 05:47:31;;;;;;;;;59.00;46.00;;;;;13.93;53.50;101594.25;6253901;22;45326;-84
2022/03/28 05:49:57;;;;;;;;;54.75;44.75;;;;;13.93;53.95;101586.22;6256734;22;45247;-84
2022/03/28 05:52:25;;;;;;;;;62.25;47.00;;;;;13.97;54.30;101577.34;6284157;22;45716;-84
2022/03/28 05:54:54;;;;;;;;;57.00;44.00;;;;;14.09;53.96;101579.31;6283954;22;45367;-83
2022/03/28 05:57:20;;;;;;;;;56.50;44.25;;;;;13.98;54.03;101570.25;6257214;22;44897;-84
2022/03/28 05:59:45;;;;;;;;;56.25;45.75;;;;;13.96;53.87;101572.00;6255609;22;45333;-85
2022/03/28 06:02:10;;;;;;;;;62.25;47.75;;;;;13.93;53.54;101566.59;6284186;22;45447;-85
2022/03/28 06:04:36;;;;;;;;;58.00;45.25;;;;;14.03;54.02;101579.22;6284579;22;45311;-84
2022/03/28 06:07:05;;;;;;;;;53.75;43.50;;;;;14.02;53.64;101566.75;6279929;22;45379;-84
2022/03/28 06:09:31;;;;;;;;;54.50;44.50;;;;;14.15;53.68;101583.84;6286031;22;45286;-84
2022/03/28 06:11:57;;;;;;;;;53.75;40.75;;;;;14.07;53.92;101575.72;6285916;22;46567;-84
2022/03/28 06:14:25;;;;;;;;;60.75;45.50;;;;;14.15;53.90;101578.50;6257330;22;45371;-83
2022/03/28 06:16:59;;;;;;;;;58.25;46.50;;;;;14.30;53.80;101572.41;5860973;22;9265523;-84
2022/03/28 06:19:27;;;;;;;;;60.75;47.75;;;;;14.13;53.85;101575.78;6283306;22;45357;-80
2022/03/28 06:21:53;;;;;;;;;54.50;46.00;;;;;14.16;54.39;101567.81;6287560;22;45281;-83
2022/03/28 06:24:37;;;;;;;;;60.75;49.75;;;;;14.21;54.28;101547.34;6259728;22;47809;-83
2022/03/28 06:27:03;;;;;;;;;60.00;47.25;;;;;14.14;54.40;101556.19;6259215;22;45405;-83
2022/03/28 06:29:32;;;;;;;;;58.50;46.50;;;;;14.37;54.67;101571.63;6260879;22;45326;-83
2022/03/28 06:31:57;;;;;;;;;59.25;46.50;;;;;14.06;54.94;101539.16;6261328;22;45331;-84
2022/03/28 06:34:24;;;;;;;;;61.00;48.75;;;;;14.18;55.01;101546.44;6260939;22;45399;-84
2022/03/28 06:37:06;;;;;;;;;;;;;;;;;;;;;
2022/03/28 06:42:54;;;;;;;;;61.00;48.75;;;;;14.20;54.07;101564.31;6291419;22;45143;-84
2022/03/28 06:45:21;;;;;;;;;55.75;47.00;;;;;14.17;54.45;101561.56;6262996;22;47001;-83
2022/03/28 06:47:51;;;;;;;;;60.25;47.75;;;;;14.21;54.56;101573.22;6291475;22;45209;-84
2022/03/28 06:50:19;;;;;;;;;56.75;45.75;;;;;14.31;54.25;101563.53;6289933;22;45317;-86
2022/03/28 06:52:46;;;;;;;;;62.50;47.00;;;;;14.42;54.33;101561.84;6290288;22;45369;-83
2022/03/28 06:55:12;;;;;;;;;59.50;46.75;;;;;14.34;54.06;101558.19;6288244;22;45266;-84
2022/03/28 06:57:38;;;;;;;;;56.50;47.00;;;;;14.39;54.10;101562.72;6266436;22;45653;-85
2022/03/28 07:00:10;;;;;;;;;63.75;49.25;;;;;14.49;54.15;101558.38;6288757;22;45358;-84
2022/03/28 07:02:36;;;;;;;;;60.00;48.00;;;;;14.44;54.07;101553.84;6262380;22;45228;-84
2022/03/28 07:05:03;;;;;;;;;58.25;47.75;;;;;14.44;54.74;101544.06;6261847;22;48440;-84
2022/03/28 07:07:43;;;;;;;;;63.75;50.00;;;;;14.73;53.94;101563.13;6289861;22;44782;-82
2022/03/28 07:10:10;;;;;;;;;60.75;48.25;;;;;14.75;54.18;101564.06;6262825;22;45408;-84
2022/03/28 07:12:37;;;;;;;;;59.50;47.50;;;;;14.79;54.13;101552.47;6262834;22;45325;-84
2022/03/28 07:15:17;;;;;;;;;60.00;47.00;;;;;14.98;53.80;101555.34;6263645;22;46975;-84
2022/03/28 07:31:24;;;;;;;;;60.50;48.50;;;;;15.59;52.62;101550.47;6292085;22;45491;-86
2022/03/28 07:37:06;;;;;;;;;59.50;47.50;;;;;15.84;52.25;101557.78;6197987;23;45453;-87
2022/03/28 07:39:48;;;;;;;;;;;;;;;;;;;;;
2022/03/28 07:42:53;;;;;;;;;;;;;;;;;;;;;
2022/03/28 07:45:24;;;;;;;;;67.25;49.25;;;;;15.92;51.88;101545.31;6177563;23;67751;-85
2022/03/28 07:47:50;;;;;;;;;64.50;49.25;;;;;15.93;52.04;101526.50;6190527;23;45459;-84
2022/03/28 07:51:05;;;;;;;;;;;;;;;;;;;;;
2022/03/28 07:53:34;;;;;;;;;66.25;52.00;;;;;15.91;50.75;101512.19;6188627;23;73735;-85
2022/03/28 07:56:11;;;;;;;;;64.25;49.25;;;;;16.11;51.12;101514.97;6197043;22;44751;-85
2022/03/28 08:01:46;;;;;;;;;61.00;48.00;;;;;16.32;50.99;101526.66;6193210;23;45735;-84
2022/03/28 08:55:58;;;;;;;;;;;;;;;;;;;;;
2022/03/28 09:34:09;;;;;;;;;60.75;48.50;;;;;19.11;46.48;101500.81;5883250;24;44807;-86
2022/03/28 09:36:49;;;;;;;;;61.50;47.00;;;;;19.03;46.33;101464.03;5827252;24;45914;-87
2022/03/28 09:39:32;;;;;;;;;64.00;49.00;;;;;19.16;46.00;101463.00;5825613;24;44975;-86
2022/03/28 09:42:20;;;;;;;;;63.00;49.25;;;;;19.30;45.67;101479.06;5826845;24;45214;-85
2022/03/28 09:45:00;;;;;;;;;59.75;47.75;;;;;19.17;45.59;101449.53;5855366;24;45353;-86
2022/03/28 09:55:53;;;;;;;;;;;;;;;;;;;;;
2022/03/28 09:59:04;;;;;;;;;56.75;47.25;;;;;20.14;42.83;101472.69;6261417;22;67715;-86
2022/03/28 10:01:43;;;;;;;;;59.50;45.50;;;;;20.17;42.49;101447.44;6234251;22;45504;-86
2022/03/28 10:04:49;;;;;;;;;54.25;43.75;;;;;20.37;42.02;101464.22;6208209;22;47432;-86
2022/03/28 10:07:19;;;;;;;;;56.75;45.50;;;;;20.14;42.17;101431.28;6260170;22;45171;-87
2022/03/28 10:10:24;;;;;;;;;53.50;45.75;;;;;20.41;42.26;101450.69;6250389;22;44755;-87
2022/03/28 10:12:50;;;;;;;;;63.00;49.75;;;;;20.32;42.09;101439.13;6237936;22;45491;-85
2022/03/28 10:15:20;;;;;;;;;56.75;46.25;;;;;20.46;41.29;101425.41;6233309;22;45406;-87
2022/03/28 10:17:50;;;;;;;;;57.25;46.00;;;;;20.41;41.46;101429.97;6233337;22;44860;-85
2022/03/28 10:20:31;;;;;;;;;;;;;;;;;;;;;
2022/03/28 10:23:33;;;;;;;;;54.50;45.75;;;;;20.74;40.37;101444.78;6258919;22;65270;-85
2022/03/28 10:26:08;;;;;;;;;55.00;44.00;;;;;20.73;39.95;101447.50;6195335;23;45408;-86
2022/03/28 10:29:23;;;;;;;;;55.00;46.00;;;;;20.69;40.02;101410.63;6173383;23;45361;-88
2022/03/28 10:32:34;;;;;;;;;;;;;;;;;;;;;
2022/03/28 10:35:26;;;;;;;;;51.33;38.33;;;;;20.93;38.51;101415.59;6077589;23;66480;-85
2022/03/28 10:45:37;;;;;;;;;48.67;38.67;;;;;20.90;36.35;101412.06;5934865;23;45923;-87
2022/03/28 10:52:15;;;;;;;;;;;;;;;;;;;;;
2022/03/28 10:54:43;;;;;;;;;52.50;42.75;;;;;20.99;36.24;101382.16;5981466;23;44688;-87
2022/03/28 10:57:26;;;;;;;;;50.33;42.67;;;;;21.09;35.56;101372.06;5970240;23;45432;-84
2022/03/28 11:00:15;;;;;;;;;52.75;43.50;;;;;21.25;36.59;101381.66;5969947;23;45470;-86
2022/03/28 11:02:43;;;;;;;;;50.33;40.33;;;;;21.30;36.65;101366.19;5970834;23;46925;-87
2022/03/28 11:05:20;;;;;;;;;48.00;40.00;;;;;21.41;35.48;101360.59;5998734;23;45474;-87
2022/03/28 11:08:01;;;;;;;;;51.75;40.25;;;;;21.31;34.92;101326.50;5973929;23;44808;-85
2022/03/28 11:10:58;;;;;;;;;;;;;;;;;;;;;
2022/03/28 11:13:36;;;;;;;;;53.00;42.25;;;;;21.50;35.64;101327.03;5994679;23;74298;-86
2022/03/28 11:16:02;;;;;;;;;41.00;31.75;;;;;21.43;33.85;101339.84;5995851;23;45473;-85
2022/03/28 11:18:41;;;;;;;;;48.00;40.67;;;;;21.54;33.48;101334.19;6068701;23;44927;-86
2022/03/28 11:22:02;;;;;;;;;;;;;;;;;;;;;
2022/03/28 11:25:00;;;;;;;;;47.50;40.75;;;;;21.91;32.69;101355.00;6216956;22;74497;-87
2022/03/28 11:27:32;;;;;;;;;48.50;41.00;;;;;21.69;32.33;101311.28;6236696;22;44769;-87
2022/03/28 11:30:14;;;;;;;;;54.50;41.75;;;;;21.90;32.38;101342.41;6260984;22;45191;-83
2022/03/28 11:34:09;;;;;;;;;;;;;;;;;;;;;
2022/03/28 11:36:47;;;;;;;;;;;;;;;;;;;;;
2022/03/28 11:43:01;;;;;;;;;;;;;;;;;;;;;
2022/03/28 11:49:28;;;;;;;;;40.00;35.00;;;;;22.82;29.07;101320.22;6082354;23;45412;-86
2022/03/28 11:52:10;;;;;;;;;33.00;30.67;;;;;22.74;27.11;101310.47;6085036;23;45883;-84
2022/03/28 11:54:49;;;;;;;;;38.33;32.67;;;;;22.65;28.89;101310.72;6056588;23;45407;-86
2022/03/28 12:00:34;;;;;;;;;42.67;35.67;;;;;22.91;29.72;101301.88;6080671;23;44884;-87
2022/03/28 12:03:00;;;;;;;;;37.67;34.00;;;;;22.60;28.51;101257.53;6050187;23;44895;-85
2022/03/28 12:05:53;;;;;;;;;43.00;34.33;;;;;22.88;28.48;101293.78;6080786;23;45212;-87
2022/03/28 12:08:28;;;;;;;;;42.67;32.67;;;;;22.88;27.85;101293.78;6081574;23;44953;-88
2022/03/28 12:11:24;;;;;;;;;41.67;35.67;;;;;22.87;27.80;101292.03;6079197;23;45673;-87
2022/03/28 12:29:41;;;;;;;;;49.67;37.00;;;;;23.59;27.62;101261.84;6189928;22;46182;-86
2022/03/28 12:43:04;;;;;;;;;;;;;;;;;;;;;
2022/03/28 12:46:37;;;;;;;;;36.00;30.33;;;;;23.58;26.76;101218.50;6042286;23;74283;-88
2022/03/28 13:20:06;;;;;;;;;33.67;29.67;;;;;23.68;26.80;101138.50;6116771;22;46110;-84
2022/03/28 13:22:57;;;;;;;;;33.67;30.33;;;;;23.94;26.44;101129.47;6290569;22;45706;-86
2022/03/28 13:29:30;;;;;;;;;38.33;32.67;;;;;24.49;25.39;101153.75;6138095;23;44989;-87
2022/03/28 13:32:01;;;;;;;;;35.33;32.00;;;;;24.40;25.92;101140.50;6106284;23;44750;-87
2022/03/28 13:35:18;;;;;;;;;39.33;32.33;;;;;24.57;25.96;101140.78;6112372;23;44864;-88
2022/03/28 13:38:41;;;;;;;;;;;;;;;;;;;;;
2022/03/28 13:41:41;;;;;;;;;32.67;31.00;;;;;24.83;23.05;101126.19;6174921;23;74720;-87
2022/03/28 16:19:31;;;;;;;;;20.00;18.33;;;;;24.59;21.17;100928.63;6251741;22;47031;-87
2022/03/28 16:36:04;;;;;;;;;27.00;24.67;;;;;24.02;22.96;100906.44;6019988;23;45005;-87
2022/03/28 16:41:56;;;;;;;;;20.33;20.33;;;;;23.81;22.76;100886.41;6019480;23;45355;-86
2022/03/28 16:44:22;;;;;;;;;25.00;23.33;;;;;23.71;22.46;100891.25;6023843;23;47626;-85
2022/03/28 16:46:51;;;;;;;;;25.67;24.33;;;;;23.59;22.70;100880.88;6049774;23;45563;-84
2022/03/28 16:49:20;;;;;;;;;26.67;24.00;;;;;23.40;23.25;100886.09;6047785;23;45489;-84
2022/03/28 16:51:49;;;;;;;;;26.00;25.00;;;;;23.38;22.83;100871.72;6077116;23;45715;-85
2022/03/28 16:54:16;;;;;;;;;27.67;24.67;;;;;23.19;23.12;100871.47;6076727;23;46983;-85
2022/03/28 16:56:42;;;;;;;;;23.67;20.67;;;;;23.10;23.00;100868.16;6078714;23;45358;-85
2022/03/28 16:59:09;;;;;;;;;21.67;20.67;;;;;22.99;22.92;100842.34;6080017;23;45373;-86
2022/03/28 17:01:35;;;;;;;;;28.00;19.67;;;;;22.80;22.49;100852.94;6083520;23;45425;-84
2022/03/28 17:04:03;;;;;;;;;23.67;22.67;;;;;22.88;22.24;100868.00;6084293;23;47014;-84
2022/03/28 17:06:28;;;;;;;;;16.33;16.33;;;;;22.82;23.04;100859.19;6109183;23;44798;-84
2022/03/28 17:08:56;;;;;;;;;21.33;20.00;;;;;22.78;22.93;100861.13;6109722;23;45446;-85
2022/03/28 17:11:25;;;;;;;;;19.67;18.33;;;;;22.85;22.81;100873.53;6147073;22;45514;-85
2022/03/28 17:13:55;;;;;;;;;21.33;20.67;;;;;22.76;21.85;100868.44;6235165;22;46971;-86
2022/03/28 17:16:28;;;;;;;;;29.00;28.00;;;;;22.62;23.13;100839.06;6236500;22;44773;-85
2022/03/28 17:19:05;;;;;;;;;30.67;25.00;;;;;22.60;22.96;100824.69;6235642;22;45348;-84
2022/03/28 17:21:58;;;;;;;;;24.00;20.67;;;;;22.84;23.15;100860.91;6237502;22;44784;-85
2022/03/28 17:24:40;;;;;;;;;23.00;21.67;;;;;22.79;22.52;100860.19;6211253;22;46067;-84
2022/03/28 17:27:12;;;;;;;;;22.67;21.00;;;;;22.64;23.16;100858.00;6212783;22;45380;-85
2022/03/28 17:29:46;;;;;;;;;23.67;22.67;;;;;22.56;22.81;100840.19;6210202;22;45353;-85
2022/03/28 17:32:13;;;;;;;;;24.67;23.33;;;;;22.32;22.57;100813.94;6262559;22;45306;-84
2022/03/28 17:34:41;;;;;;;;;26.00;23.00;;;;;22.42;22.82;100847.91;6264155;22;46316;-84
2022/03/28 17:37:08;;;;;;;;;23.67;20.33;;;;;22.36;22.81;100840.88;6237191;22;45207;-83
2022/03/28 17:40:00;;;;;;;;;21.00;18.33;;;;;22.42;23.57;100842.50;6260400;22;45437;-84
2022/03/28 17:42:29;;;;;;;;;15.00;15.00;;;;;22.27;22.93;100833.03;6263842;22;45686;-85
2022/03/28 17:44:56;;;;;;;;;27.00;24.67;;;;;22.09;23.44;100810.09;6236815;22;47124;-84
2022/03/28 17:47:23;;;;;;;;;26.33;22.33;;;;;22.01;23.57;100800.47;6263753;22;45384;-84
2022/03/28 17:49:50;;;;;;;;;29.00;23.67;;;;;22.13;23.63;100829.84;6263939;22;45472;-84
2022/03/28 17:52:36;;;;;;;;;26.33;23.67;;;;;22.04;24.03;100797.66;6263061;22;45180;-85
2022/03/28 17:55:05;;;;;;;;;26.67;24.67;;;;;21.84;24.03;100790.19;6213290;22;45421;-84
2022/03/28 17:57:40;;;;;;;;;24.67;21.67;;;;;21.80;24.11;100793.94;6234944;22;45326;-85
2022/03/28 18:00:35;;;;;;;;;25.33;23.67;;;;;21.90;24.07;100817.94;6234537;22;45706;-84
2022/03/28 18:03:34;;;;;;;;;26.00;22.67;;;;;21.85;24.20;100802.78;6235643;22;44868;-84
2022/03/28 18:06:08;;;;;;;;;27.67;25.00;;;;;21.58;24.88;100773.81;6076420;23;46198;-85
2022/03/28 18:08:36;;;;;;;;;26.67;23.67;;;;;21.59;24.54;100804.47;6142517;23;45416;-84
2022/03/28 18:11:06;;;;;;;;;24.33;22.67;;;;;21.71;25.08;100828.47;6167667;23;44906;-84
2022/03/28 18:13:32;;;;;;;;;24.33;24.33;;;;;21.51;25.21;100803.81;6168160;23;45262;-84
2022/03/28 18:15:58;;;;;;;;;27.33;25.00;;;;;21.45;25.07;100804.00;6165894;23;47633;-85
2022/03/28 18:18:24;;;;;;;;;25.00;23.00;;;;;21.47;25.07;100812.94;6114185;23;45856;-84
2022/03/28 18:20:50;;;;;;;;;28.67;25.00;;;;;21.40;25.04;100811.34;6139819;23;45466;-84
2022/03/28 18:23:17;;;;;;;;;28.67;27.00;;;;;21.46;25.36;100816.59;6140942;23;45516;-84
2022/03/28 18:25:44;;;;;;;;;23.00;20.67;;;;;21.39;25.22;100818.59;6141668;23;46649;-84
2022/03/28 18:28:10;;;;;;;;;26.33;23.67;;;;;21.30;25.62;100811.59;6116341;23;45769;-84
2022/03/28 18:30:36;;;;;;;;;23.33;23.33;;;;;21.06;25.73;100779.88;6164027;23;44838;-84
2022/03/28 18:33:02;;;;;;;;;28.67;27.00;;;;;21.21;25.70;100816.38;6169320;23;45751;-84
2022/03/28 18:35:28;;;;;;;;;26.00;22.00;;;;;21.13;25.47;100814.81;6142527;23;46817;-84
2022/03/28 18:37:56;;;;;;;;;27.00;25.00;;;;;21.08;25.40;100784.28;6168317;23;45512;-83
2022/03/28 18:40:22;;;;;;;;;25.67;25.67;;;;;21.14;26.08;100821.97;6167810;23;45427;-84
2022/03/28 18:42:48;;;;;;;;;25.33;24.00;;;;;21.01;25.89;100807.03;6201717;22;45424;-84
2022/03/28 18:45:14;;;;;;;;;25.00;23.00;;;;;20.94;25.90;100791.91;6232153;22;46778;-84
2022/03/28 18:47:40;;;;;;;;;26.00;24.00;;;;;20.92;26.22;100799.19;6232909;22;45658;-84